| time (UTC) | temp F | wind direction | speed knots | gust knots | rain 1hr in | rain 24hr in | rain mn in | humidity % | barometer mb |
| 20260507123308 | 42 | 210 | 12.2 | 0.0 | 0.00 | 0.00 | 0.00 | 75 | 1016.0 |
| 20260507120307 | 42 | 210 | 10.4 | 0.0 | 0.00 | 0.00 | 0.00 | 81 | 1016.0 |
| 20260507113308 | 41 | 200 | 12.2 | 0.0 | 0.00 | 0.00 | 0.00 | 86 | 1016.0 |
| 20260507110307 | 41 | 210 | 12.2 | 0.0 | 0.00 | 0.00 | 0.00 | 93 | 1016.0 |
| 20260507103307 | 37 | 190 | 10.4 | 0.0 | 0.00 | 0.00 | 0.00 | 93 | 1016.0 |
| 20260507100308 | 37 | 190 | 10.4 | 0.0 | 0.00 | 0.00 | 0.00 | 93 | 1016.0 |
| 20260507093307 | 37 | 180 | 8.7 | 0.0 | 0.00 | 0.00 | 0.00 | 86 | 1015.0 |
| 20260507090308 | 35 | 190 | 8.7 | 0.0 | 0.00 | 0.00 | 0.00 | 93 | 1015.0 |
| 20260507083307 | 35 | 190 | 8.7 | 0.0 | 0.00 | 0.00 | 0.00 | 93 | 1015.0 |
| 20260507080308 | 33 | 190 | 13.0 | 0.0 | 0.00 | 0.00 | 0.00 | 93 | 1015.0 |
| 20260507073307 | 35 | 190 | 11.3 | 0.0 | 0.00 | 0.00 | 0.00 | 93 | 1014.0 |
| 20260507070307 | 35 | 220 | 8.7 | 0.0 | 0.00 | 0.00 | 0.00 | 93 | 1014.0 |
| 20260507063307 | 37 | 220 | 13.0 | 0.0 | 0.00 | 0.00 | 0.00 | 86 | 1014.0 |
| 20260507060306 | 39 | 190 | 10.4 | 0.0 | 0.00 | 0.00 | 0.00 | 80 | 1013.0 |
| 20260507053307 | 39 | 190 | 10.4 | 0.0 | 0.00 | 0.00 | 0.00 | 80 | 1013.0 |
| 20260507050307 | 37 | 180 | 10.4 | 0.0 | 0.00 | 0.00 | 0.00 | 86 | 1013.0 |
| 20260507043308 | 37 | 180 | 11.3 | 0.0 | 0.00 | 0.00 | 0.00 | 86 | 1013.0 |
| 20260507040308 | 37 | 180 | 12.2 | 0.0 | 0.00 | 0.00 | 0.00 | 86 | 1013.0 |
| 20260507033307 | 37 | 190 | 12.2 | 0.0 | 0.00 | 0.00 | 0.00 | 86 | 1013.0 |
| 20260507030306 | 37 | 190 | 12.2 | 0.0 | 0.00 | 0.00 | 0.00 | 86 | 1012.0 |
| 20260507023307 | 37 | 180 | 10.4 | 0.0 | 0.00 | 0.00 | 0.00 | 86 | 1012.0 |
| 20260507020307 | 37 | 180 | 11.3 | 0.0 | 0.00 | 0.00 | 0.00 | 86 | 1012.0 |
| 20260507013307 | 37 | 180 | 10.4 | 0.0 | 0.00 | 0.00 | 0.00 | 80 | 1012.0 |
| 20260507010306 | 39 | 170 | 8.7 | 0.0 | 0.00 | 0.00 | 0.00 | 75 | 1012.0 |
| 20260507003307 | 37 | 190 | 7.0 | 0.0 | 0.00 | 0.00 | 0.00 | 86 | 1012.0 |
| 20260507000307 | 37 | 280 | 6.1 | 0.0 | 0.00 | 0.00 | 0.00 | 86 | 1012.0 |
| 20260506233307 | 39 | 170 | 7.8 | 0.0 | 0.00 | 0.00 | 0.00 | 75 | 1012.0 |
| 20260506230307 | 39 | 180 | 10.4 | 0.0 | 0.00 | 0.00 | 0.00 | 75 | 1012.0 |
| 20260506223307 | 39 | 180 | 7.8 | 0.0 | 0.00 | 0.00 | 0.00 | 75 | 1012.0 |
| 20260506220307 | 37 | 190 | 7.8 | 0.0 | 0.00 | 0.00 | 0.00 | 86 | 1011.0 |
| 20260506213307 | 37 | 190 | 8.7 | 0.0 | 0.00 | 0.00 | 0.00 | 86 | 1011.0 |
| 20260506210307 | 37 | 190 | 4.3 | 0.0 | 0.00 | 0.00 | 0.00 | 93 | 1012.0 |
| 20260506203306 | 37 | 240 | 5.2 | 0.0 | 0.00 | 0.00 | 0.00 | 93 | 1011.0 |
| 20260506200306 | 39 | 190 | 7.8 | 0.0 | 0.00 | 0.00 | 0.00 | 80 | 1011.0 |
| 20260506193307 | 37 | 190 | 11.3 | 0.0 | 0.00 | 0.00 | 0.00 | 86 | 1011.0 |
| 20260506190306 | 37 | 180 | 11.3 | 0.0 | 0.00 | 0.00 | 0.00 | 86 | 1011.0 |
| 20260506183307 | 39 | 190 | 11.3 | 0.0 | 0.00 | 0.00 | 0.00 | 80 | 1011.0 |
| 20260506180307 | 39 | 190 | 7.0 | 0.0 | 0.00 | 0.00 | 0.00 | 80 | 1011.0 |
| 20260506173308 | 41 | 200 | 7.0 | 0.0 | 0.00 | 0.00 | 0.00 | 80 | 1011.0 |
| 20260506170307 | 39 | 190 | 8.7 | 0.0 | 0.00 | 0.00 | 0.00 | 86 | 1011.0 |
| 20260506163307 | 41 | 210 | 7.8 | 0.0 | 0.00 | 0.00 | 0.00 | 86 | 1010.0 |
| 20260506160307 | 41 | 210 | 7.8 | 0.0 | 0.00 | 0.00 | 0.00 | 86 | 1010.0 |
| 20260506153307 | 41 | 240 | 7.0 | 0.0 | 0.00 | 0.00 | 0.00 | 80 | 1010.0 |
| 20260506150307 | 37 | 110 | 1.7 | 0.0 | 0.00 | 0.00 | 0.00 | 93 | 1010.0 |
| 20260506143307 | 42 | 230 | 8.7 | 0.0 | 0.00 | 0.00 | 0.00 | 75 | 1010.0 |
| 20260506140307 | 42 | 230 | 8.7 | 0.0 | 0.00 | 0.00 | 0.00 | 75 | 1010.0 |
| 20260506133307 | 42 | 220 | 7.8 | 0.0 | 0.00 | 0.00 | 0.00 | 75 | 1010.0 |
| 20260506130308 | 42 | 210 | 8.7 | 0.0 | 0.00 | 0.00 | 0.00 | 70 | 1010.0 |